createdAt,value
2018-08-27T00:09:20.374Z,14.7
2018-08-27T00:19:31.598Z,14.6
2018-08-27T00:29:48.222Z,14.6
2018-08-27T00:40:02.364Z,14.6
2018-08-27T00:50:47.726Z,14.8
2018-08-27T01:01:02.419Z,14.8
2018-08-27T01:11:16.827Z,14.9
2018-08-27T01:21:30.646Z,15.0
2018-08-27T01:31:44.934Z,15.0
2018-08-27T01:41:59.157Z,15.0
2018-08-27T01:52:12.254Z,14.9
2018-08-27T02:02:27.408Z,14.8
2018-08-27T02:12:42.851Z,14.8
2018-08-27T02:22:57.343Z,14.7
2018-08-27T02:33:11.703Z,14.6
2018-08-27T02:43:57.006Z,14.5
2018-08-27T02:54:11.706Z,14.5
2018-08-27T03:04:57.101Z,14.4
2018-08-27T03:15:08.495Z,14.4
2018-08-27T03:25:23.449Z,14.4
2018-08-27T03:35:34.629Z,14.3
2018-08-27T03:45:49.168Z,14.3
2018-08-27T03:56:02.997Z,14.3
2018-08-27T04:06:28.291Z,14.2
2018-08-27T04:16:42.768Z,14.2
2018-08-27T04:27:00.590Z,14.1
2018-08-27T04:37:45.544Z,14.1
2018-08-27T04:48:31.258Z,14.1
2018-08-27T04:58:45.859Z,14.1
2018-08-27T05:09:00.839Z,14.1
2018-08-27T05:19:15.067Z,14.1
2018-08-27T05:29:26.212Z,14.1
2018-08-27T05:39:42.092Z,14.1
2018-08-27T05:49:55.952Z,14.1
2018-08-27T06:00:10.519Z,14.1
2018-08-27T06:10:24.705Z,14.1
2018-08-27T06:20:38.669Z,14.2
2018-08-27T06:30:52.843Z,14.2
2018-08-27T06:41:08.814Z,14.3
2018-08-27T06:51:22.331Z,14.4
2018-08-27T07:01:37.853Z,14.5
2018-08-27T07:11:52.399Z,14.5
2018-08-27T07:22:06.758Z,14.7
2018-08-27T07:32:20.223Z,14.8
2018-08-27T07:43:05.077Z,15.1
2018-08-27T07:53:18.755Z,15.1
2018-08-27T08:03:30.565Z,15.2
2018-08-27T08:13:41.981Z,15.4
2018-08-27T08:23:56.275Z,15.6
2018-08-27T08:34:10.317Z,15.8
2018-08-27T08:44:24.514Z,16.0
2018-08-27T08:54:40.369Z,16.4
2018-08-27T09:04:53.904Z,16.7
2018-08-27T09:15:07.259Z,17.0
2018-08-27T09:25:21.605Z,17.3
2018-08-27T09:35:35.754Z,17.6
2018-08-27T09:45:50.003Z,17.9
2018-08-27T09:56:02.028Z,18.2
2018-08-27T10:06:17.203Z,18.5
2018-08-27T10:16:31.484Z,18.7
2018-08-27T10:26:46.012Z,18.7
2018-08-27T10:37:00.061Z,19.0
2018-08-27T10:47:11.202Z,19.7
2018-08-27T10:57:25.535Z,20.9
2018-08-27T11:08:35.638Z,22.9
2018-08-27T11:18:49.385Z,22.9
2018-08-27T11:39:17.660Z,23.7
2018-08-27T11:49:31.990Z,24.2
2018-08-27T11:59:46.706Z,25.0
2018-08-27T12:10:00.108Z,25.4
2018-08-27T12:20:13.625Z,25.3
2018-08-27T12:30:27.735Z,24.7
2018-08-27T12:40:46.690Z,24.3
2018-08-27T12:51:05.919Z,24.1
2018-08-27T13:01:17.580Z,24.3
2018-08-27T13:11:31.802Z,24.8
2018-08-27T13:21:43.905Z,25.3
2018-08-27T13:52:30.310Z,24.9
2018-08-27T14:02:58.316Z,24.7
2018-08-27T14:13:54.287Z,24.4
2018-08-27T14:24:09.120Z,24.4
2018-08-27T14:44:51.736Z,23.9
2018-08-27T14:56:05.197Z,23.6
2018-08-27T15:06:16.861Z,23.3
2018-08-27T15:17:02.397Z,22.8
2018-08-27T15:28:45.002Z,22.8
2018-08-27T15:50:41.164Z,22.1
2018-08-27T16:01:26.115Z,22.0
2018-08-27T16:06:19.024Z,22.0
2018-08-27T16:16:31.754Z,22.0
2018-08-27T16:26:45.473Z,21.9
2018-08-27T16:36:59.856Z,21.6
2018-08-27T16:47:13.965Z,21.3
2018-08-27T16:57:28.339Z,21.0
2018-08-27T17:07:42.261Z,20.8
2018-08-27T17:18:27.303Z,20.4
2018-08-27T17:28:41.224Z,20.4
2018-08-27T17:38:55.205Z,20.3
2018-08-27T17:49:09.724Z,20.0
2018-08-27T17:59:23.841Z,19.8
2018-08-27T18:10:08.627Z,19.5
2018-08-27T18:21:10.754Z,19.2
2018-08-27T18:31:22.638Z,19.2
2018-08-27T18:41:39.430Z,19.0
2018-08-27T18:51:53.531Z,18.7
2018-08-27T19:02:05.934Z,18.5
2018-08-27T19:23:49.710Z,18.1
2018-08-27T19:34:05.158Z,17.9
2018-08-27T19:45:06.400Z,17.7
2018-08-27T19:55:48.671Z,17.7
2018-08-27T20:06:03.301Z,17.6
2018-08-27T20:16:15.636Z,17.4
2018-08-27T20:26:29.753Z,17.3
2018-08-27T20:36:45.457Z,17.2
2018-08-27T20:46:59.662Z,17.1
2018-08-27T20:57:13.538Z,17.0
2018-08-27T21:07:55.136Z,17.0
2018-08-27T21:18:08.801Z,16.9
2018-08-27T21:28:23.079Z,16.9
2018-08-27T21:38:37.465Z,16.8
2018-08-27T21:48:51.581Z,16.8
2018-08-27T21:59:05.828Z,16.7
2018-08-27T22:09:20.023Z,16.6
2018-08-27T22:19:34.410Z,16.6
2018-08-27T22:29:48.660Z,16.5
2018-08-27T22:40:03.329Z,16.5
2018-08-27T22:50:17.020Z,16.4
2018-08-27T23:01:02.904Z,16.4
2018-08-27T23:11:17.211Z,16.3
2018-08-27T23:21:32.922Z,16.4
2018-08-27T23:31:46.595Z,16.3
2018-08-27T23:42:00.980Z,16.3
2018-08-27T23:52:15.254Z,16.3
